createdAt,value
2018-08-27T00:01:59.091Z,40.90
2018-08-27T00:04:29.121Z,41.30
2018-08-27T00:06:59.204Z,41.40
2018-08-27T00:09:29.236Z,41.90
2018-08-27T00:11:59.221Z,41.20
2018-08-27T00:14:29.242Z,40.70
2018-08-27T00:16:59.353Z,41.30
2018-08-27T00:19:29.664Z,41.40
2018-08-27T00:21:59.677Z,41.80
2018-08-27T00:24:29.678Z,40.90
2018-08-27T00:26:59.667Z,39.90
2018-08-27T00:29:29.734Z,40.70
2018-08-27T00:31:59.826Z,41.00
2018-08-27T00:34:29.911Z,40.30
2018-08-27T00:36:59.893Z,40.10
2018-08-27T00:39:29.932Z,40.20
2018-08-27T00:42:00.019Z,40.20
2018-08-27T00:44:30.127Z,40.00
2018-08-27T00:47:00.255Z,40.30
2018-08-27T00:49:30.435Z,40.10
2018-08-27T00:52:00.490Z,40.20
2018-08-27T00:54:30.554Z,39.60
2018-08-27T00:57:00.675Z,39.80
2018-08-27T00:59:30.765Z,39.70
2018-08-27T01:02:00.866Z,39.80
2018-08-27T01:04:30.894Z,39.30
2018-08-27T01:07:01.049Z,40.10
2018-08-27T01:09:31.113Z,40.10
2018-08-27T01:12:01.106Z,40.00
2018-08-27T01:14:31.108Z,40.00
2018-08-27T01:17:01.828Z,41.50
2018-08-27T01:19:31.828Z,39.90
2018-08-27T01:22:02.906Z,39.90
2018-08-27T01:24:32.911Z,39.90
2018-08-27T01:27:02.998Z,39.80
2018-08-27T01:29:33.074Z,39.70
2018-08-27T01:32:35.301Z,40.20
2018-08-27T01:35:05.318Z,41.00
2018-08-27T01:37:35.459Z,41.10
2018-08-27T01:40:05.478Z,41.00
2018-08-27T01:42:35.521Z,41.30
2018-08-27T01:45:06.721Z,41.80
2018-08-27T01:47:36.738Z,41.30
2018-08-27T01:50:06.953Z,41.00
2018-08-27T01:52:37.022Z,41.40
2018-08-27T01:55:07.049Z,41.50
2018-08-27T01:57:43.265Z,41.40
2018-08-27T02:00:13.309Z,41.30
2018-08-27T02:02:43.358Z,41.70
2018-08-27T02:05:13.314Z,41.60
2018-08-27T02:07:43.366Z,41.60
2018-08-27T02:10:13.412Z,41.30
2018-08-27T02:12:43.464Z,41.40
2018-08-27T02:15:13.470Z,41.10
2018-08-27T02:17:43.492Z,42.20
2018-08-27T02:20:13.589Z,41.90
2018-08-27T02:22:43.650Z,41.70
2018-08-27T02:25:13.630Z,41.60
2018-08-27T02:27:43.682Z,41.90
2018-08-27T02:30:13.731Z,41.10
2018-08-27T02:32:50.500Z,41.10
2018-08-27T02:35:20.456Z,41.30
2018-08-27T02:37:50.514Z,40.70
2018-08-27T02:40:20.498Z,41.90
2018-08-27T02:42:50.561Z,40.80
2018-08-27T02:45:20.643Z,40.70
2018-08-27T02:47:50.586Z,41.40
2018-08-27T02:50:20.585Z,40.40
2018-08-27T02:52:50.626Z,40.30
2018-08-27T02:55:20.625Z,40.30
2018-08-27T02:57:50.653Z,40.20
2018-08-27T03:00:20.620Z,40.40
2018-08-27T03:02:50.696Z,40.20
2018-08-27T03:05:20.719Z,40.10
2018-08-27T03:07:50.697Z,40.70
2018-08-27T03:10:20.757Z,40.40
2018-08-27T03:12:50.816Z,40.10
2018-08-27T03:15:20.761Z,39.60
2018-08-27T03:17:50.777Z,41.10
2018-08-27T03:20:20.810Z,41.10
2018-08-27T03:22:50.823Z,40.70
2018-08-27T03:25:20.878Z,41.00
2018-08-27T03:27:50.953Z,41.10
2018-08-27T03:30:20.972Z,40.60
2018-08-27T03:32:51.082Z,40.30
2018-08-27T03:35:21.084Z,40.10
2018-08-27T03:37:51.111Z,39.90
2018-08-27T03:40:21.154Z,40.20
2018-08-27T03:42:51.092Z,40.10
2018-08-27T03:45:21.114Z,40.30
2018-08-27T03:47:51.081Z,40.90
2018-08-27T03:50:21.122Z,40.90
2018-08-27T03:52:51.143Z,41.30
2018-08-27T03:55:21.132Z,41.70
2018-08-27T03:57:51.109Z,41.40
2018-08-27T04:00:21.113Z,42.80
2018-08-27T04:02:51.056Z,42.60
2018-08-27T04:05:27.318Z,43.00
2018-08-27T04:07:58.438Z,42.70
2018-08-27T04:10:28.546Z,42.90
2018-08-27T04:12:58.609Z,43.90
2018-08-27T04:15:28.658Z,43.50
2018-08-27T04:17:58.745Z,43.80
2018-08-27T04:20:28.746Z,43.80
2018-08-27T04:22:58.733Z,43.70
2018-08-27T04:25:28.713Z,43.70
2018-08-27T04:27:58.754Z,43.70
2018-08-27T04:30:28.730Z,43.90
2018-08-27T04:32:58.734Z,43.70
2018-08-27T04:35:28.730Z,43.80
2018-08-27T04:37:58.830Z,43.80
2018-08-27T04:40:28.813Z,43.80
2018-08-27T04:42:58.807Z,43.90
2018-08-27T04:45:28.777Z,43.20
2018-08-27T04:47:58.820Z,43.10
2018-08-27T04:50:28.785Z,42.60
2018-08-27T04:52:58.871Z,42.30
2018-08-27T04:55:28.881Z,42.30
2018-08-27T04:57:58.841Z,42.10
2018-08-27T05:00:37.590Z,41.70
2018-08-27T05:03:08.378Z,41.50
2018-08-27T05:05:38.606Z,41.00
2018-08-27T05:08:08.713Z,40.80
2018-08-27T05:10:38.752Z,40.70
2018-08-27T05:13:08.808Z,40.20
2018-08-27T05:15:38.907Z,40.30
2018-08-27T05:18:08.964Z,40.30
2018-08-27T05:20:38.916Z,40.40
2018-08-27T05:23:08.953Z,40.40
2018-08-27T05:25:38.954Z,40.50
2018-08-27T05:28:08.934Z,40.50
2018-08-27T05:30:38.952Z,40.50
2018-08-27T05:33:08.984Z,40.60
2018-08-27T05:35:39.007Z,40.30
2018-08-27T05:38:09.064Z,40.50
2018-08-27T05:40:39.081Z,40.60
2018-08-27T05:43:09.166Z,40.60
2018-08-27T05:45:39.113Z,39.90
2018-08-27T05:48:09.199Z,40.00
2018-08-27T05:50:39.239Z,39.80
2018-08-27T05:53:09.238Z,39.70
2018-08-27T05:55:39.256Z,39.60
2018-08-27T05:58:09.248Z,39.80
2018-08-27T06:00:39.883Z,40.20
2018-08-27T06:03:09.959Z,39.70
2018-08-27T06:05:39.986Z,40.10
2018-08-27T06:08:10.113Z,39.80
2018-08-27T06:10:40.171Z,39.40
2018-08-27T06:13:10.236Z,39.10
2018-08-27T06:15:40.337Z,39.20
2018-08-27T06:18:10.385Z,38.70
2018-08-27T06:20:40.491Z,38.00
2018-08-27T06:23:10.569Z,37.30
2018-08-27T06:25:40.675Z,37.10
2018-08-27T06:28:10.727Z,35.90
2018-08-27T06:30:40.708Z,36.00
2018-08-27T06:33:10.774Z,35.90
2018-08-27T06:35:41.453Z,36.10
2018-08-27T06:38:11.479Z,35.60
2018-08-27T06:40:41.563Z,36.10
2018-08-27T06:43:11.585Z,35.90
2018-08-27T06:45:41.603Z,35.60
2018-08-27T06:48:11.598Z,35.90
2018-08-27T06:50:41.589Z,35.10
2018-08-27T06:53:11.704Z,35.70
2018-08-27T06:55:41.718Z,34.80
2018-08-27T06:58:11.732Z,34.70
2018-08-27T07:00:41.767Z,34.00
2018-08-27T07:03:12.333Z,34.20
2018-08-27T07:05:42.338Z,33.80
2018-08-27T07:08:12.438Z,33.90
2018-08-27T07:10:42.486Z,33.90
2018-08-27T07:13:12.478Z,34.10
2018-08-27T07:15:42.477Z,34.10
2018-08-27T07:18:12.608Z,34.40
2018-08-27T07:20:42.636Z,33.00
2018-08-27T07:23:12.649Z,33.40
2018-08-27T07:25:42.651Z,32.80
2018-08-27T07:28:12.637Z,33.60
2018-08-27T07:30:42.632Z,32.40
2018-08-27T07:33:12.686Z,31.90
2018-08-27T07:35:42.716Z,31.70
2018-08-27T07:38:12.814Z,31.30
2018-08-27T07:40:42.914Z,31.40
2018-08-27T07:43:12.925Z,31.40
2018-08-27T07:45:43.028Z,31.00
2018-08-27T07:48:13.038Z,31.20
2018-08-27T07:50:43.177Z,31.30
2018-08-27T07:53:13.042Z,30.90
2018-08-27T07:55:43.083Z,31.60
2018-08-27T07:58:13.074Z,31.50
2018-08-27T08:00:43.187Z,30.70
2018-08-27T08:03:13.180Z,30.70
2018-08-27T08:05:43.203Z,30.60
2018-08-27T08:08:13.331Z,30.30
2018-08-27T08:10:43.339Z,30.20
2018-08-27T08:13:13.535Z,31.00
2018-08-27T08:15:44.126Z,32.90
2018-08-27T08:18:19.067Z,30.00
2018-08-27T08:20:49.854Z,29.40
2018-08-27T08:23:19.995Z,29.40
2018-08-27T08:25:49.969Z,29.30
2018-08-27T08:28:20.041Z,30.00
2018-08-27T08:30:50.063Z,29.50
2018-08-27T08:33:20.080Z,28.40
2018-08-27T08:35:50.037Z,28.60
2018-08-27T08:38:20.026Z,28.40
2018-08-27T08:40:50.061Z,27.80
2018-08-27T08:43:20.057Z,27.90
2018-08-27T08:45:50.041Z,27.90
2018-08-27T08:48:20.079Z,26.60
2018-08-27T08:50:50.258Z,26.70
2018-08-27T08:53:20.311Z,26.90
2018-08-27T08:55:50.291Z,25.80
2018-08-27T08:58:20.360Z,26.70
2018-08-27T09:00:50.345Z,26.50
2018-08-27T09:03:20.394Z,25.70
2018-08-27T09:05:50.329Z,25.30
2018-08-27T09:08:20.421Z,25.90
2018-08-27T09:10:50.423Z,25.70
2018-08-27T09:13:20.452Z,25.90
2018-08-27T09:15:50.445Z,26.10
2018-08-27T09:18:20.482Z,26.00
2018-08-27T09:20:50.516Z,25.80
2018-08-27T09:23:20.501Z,25.70
2018-08-27T09:25:50.558Z,26.50
2018-08-27T09:28:20.580Z,25.20
2018-08-27T09:30:50.629Z,26.50
2018-08-27T09:33:20.646Z,26.10
2018-08-27T09:35:50.679Z,25.90
2018-08-27T09:38:20.753Z,25.70
2018-08-27T09:40:50.815Z,26.50
2018-08-27T09:43:20.830Z,28.00
2018-08-27T09:45:50.930Z,28.70
2018-08-27T09:48:20.857Z,28.10
2018-08-27T09:50:50.814Z,29.50
2018-08-27T09:53:20.905Z,28.50
2018-08-27T09:55:50.962Z,27.60
2018-08-27T09:58:21.039Z,26.70
2018-08-27T10:00:56.421Z,26.90
2018-08-27T10:03:26.472Z,26.80
2018-08-27T10:05:56.408Z,26.60
2018-08-27T10:08:26.529Z,26.60
2018-08-27T10:10:56.595Z,26.50
2018-08-27T10:13:26.569Z,26.00
2018-08-27T10:15:56.639Z,26.10
2018-08-27T10:18:26.716Z,25.50
2018-08-27T10:20:56.781Z,25.80
2018-08-27T10:23:26.827Z,25.70
2018-08-27T10:25:56.845Z,25.60
2018-08-27T10:28:27.089Z,25.70
2018-08-27T10:30:57.102Z,25.60
2018-08-27T10:33:27.117Z,26.00
2018-08-27T10:35:57.267Z,26.20
2018-08-27T10:38:27.372Z,25.80
2018-08-27T10:40:57.333Z,26.00
2018-08-27T10:43:27.345Z,26.40
2018-08-27T10:45:57.343Z,26.20
2018-08-27T10:48:27.326Z,25.70
2018-08-27T10:50:58.248Z,26.00
2018-08-27T10:53:28.493Z,26.10
2018-08-27T10:56:01.728Z,26.40
2018-08-27T10:58:31.818Z,27.30
2018-08-27T11:01:02.015Z,26.50
2018-08-27T11:03:32.126Z,26.40
2018-08-27T11:06:02.240Z,27.20
2018-08-27T11:08:32.310Z,27.00
2018-08-27T11:11:02.334Z,27.10
2018-08-27T11:13:32.382Z,27.10
2018-08-27T11:16:02.431Z,27.00
2018-08-27T11:18:32.496Z,27.10
2018-08-27T11:21:02.492Z,27.00
2018-08-27T11:23:32.506Z,26.60
2018-08-27T11:26:02.569Z,27.10
2018-08-27T11:28:32.711Z,26.90
2018-08-27T11:31:02.796Z,26.80
2018-08-27T11:33:32.795Z,27.20
2018-08-27T11:36:02.799Z,27.40
2018-08-27T11:38:32.975Z,27.20
2018-08-27T11:41:02.956Z,26.60
2018-08-27T11:43:33.094Z,26.90
2018-08-27T11:46:03.170Z,27.10
2018-08-27T11:48:33.268Z,26.90
2018-08-27T11:51:03.404Z,27.00
2018-08-27T11:53:33.405Z,27.30
2018-08-27T11:56:03.426Z,27.10
2018-08-27T11:58:33.490Z,27.50
2018-08-27T12:01:06.499Z,27.40
2018-08-27T12:03:36.579Z,27.00
2018-08-27T12:06:06.550Z,27.10
2018-08-27T12:08:36.629Z,26.70
2018-08-27T12:11:06.705Z,26.70
2018-08-27T12:13:36.940Z,26.90
2018-08-27T12:16:06.952Z,26.80
2018-08-27T12:18:37.009Z,26.70
2018-08-27T12:21:07.050Z,26.40
2018-08-27T12:23:37.113Z,26.20
2018-08-27T12:26:07.152Z,26.20
2018-08-27T12:28:37.359Z,25.70
2018-08-27T12:31:08.167Z,26.00
2018-08-27T12:33:38.155Z,25.80
2018-08-27T12:36:08.223Z,25.90
2018-08-27T12:38:38.399Z,26.20
2018-08-27T12:41:08.879Z,26.50
2018-08-27T12:43:39.329Z,26.50
2018-08-27T12:46:11.139Z,26.90
2018-08-27T12:48:41.811Z,26.40
2018-08-27T12:51:12.573Z,26.50
2018-08-27T12:53:43.170Z,26.10
2018-08-27T12:56:13.504Z,26.00
2018-08-27T12:58:47.054Z,25.90
2018-08-27T13:01:18.415Z,25.80
2018-08-27T13:03:48.576Z,25.90
2018-08-27T13:06:20.544Z,26.60
2018-08-27T13:08:50.678Z,25.70
2018-08-27T13:11:20.745Z,25.50
2018-08-27T13:13:50.893Z,25.70
2018-08-27T13:16:21.878Z,25.50
2018-08-27T13:18:51.913Z,25.80
2018-08-27T13:21:25.873Z,25.80
2018-08-27T13:23:56.406Z,25.50
2018-08-27T13:26:26.551Z,25.50
2018-08-27T13:28:56.590Z,26.50
2018-08-27T13:31:26.716Z,26.80
2018-08-27T13:33:56.882Z,26.90
2018-08-27T13:36:27.011Z,27.10
2018-08-27T13:38:57.036Z,26.60
2018-08-27T13:41:27.113Z,26.40
2018-08-27T13:43:57.198Z,26.20
2018-08-27T13:46:27.173Z,26.60
2018-08-27T13:48:57.223Z,26.80
2018-08-27T13:51:32.453Z,27.20
2018-08-27T13:54:02.504Z,27.40
2018-08-27T13:56:32.548Z,28.00
2018-08-27T13:59:02.697Z,27.60
2018-08-27T14:01:32.701Z,27.60
2018-08-27T14:04:02.793Z,27.90
2018-08-27T14:06:32.908Z,28.30
2018-08-27T14:09:03.040Z,28.50
2018-08-27T14:11:33.010Z,28.80
2018-08-27T14:14:03.097Z,28.80
2018-08-27T14:16:33.145Z,29.40
2018-08-27T14:19:03.306Z,29.30
2018-08-27T14:21:33.310Z,29.70
2018-08-27T14:24:03.533Z,29.50
2018-08-27T14:26:33.724Z,29.80
2018-08-27T14:29:03.710Z,29.80
2018-08-27T14:31:33.709Z,29.90
2018-08-27T14:34:03.783Z,30.10
2018-08-27T14:36:33.792Z,30.80
2018-08-27T14:39:04.335Z,31.00
2018-08-27T14:41:34.391Z,31.20
2018-08-27T14:44:04.397Z,31.60
2018-08-27T14:46:34.421Z,31.10
2018-08-27T14:49:04.379Z,31.70
2018-08-27T14:51:34.471Z,31.60
2018-08-27T14:54:04.453Z,31.80
2018-08-27T14:56:34.567Z,32.20
2018-08-27T14:59:04.652Z,32.30
2018-08-27T15:01:34.733Z,32.60
2018-08-27T15:04:04.681Z,32.90
2018-08-27T15:06:34.667Z,32.50
2018-08-27T15:09:05.852Z,32.60
2018-08-27T15:11:36.081Z,32.80
2018-08-27T15:14:06.051Z,32.30
2018-08-27T15:16:36.133Z,32.20
2018-08-27T15:19:06.334Z,31.90
2018-08-27T15:21:36.349Z,31.40
2018-08-27T15:24:06.461Z,31.90
2018-08-27T15:26:36.525Z,31.80
2018-08-27T15:29:06.596Z,31.70
2018-08-27T15:31:36.671Z,32.20
2018-08-27T15:34:07.064Z,32.50
2018-08-27T15:36:37.124Z,31.90
2018-08-27T15:39:09.624Z,31.70
2018-08-27T15:41:39.646Z,32.10
2018-08-27T15:44:09.640Z,31.80
2018-08-27T15:46:42.566Z,32.50
2018-08-27T15:49:13.132Z,32.30
2018-08-27T15:51:43.213Z,32.40
2018-08-27T15:54:13.410Z,32.50
2018-08-27T15:56:43.744Z,32.90
2018-08-27T15:59:14.347Z,32.60
2018-08-27T16:01:44.472Z,32.20
2018-08-27T16:04:14.800Z,32.10
2018-08-27T16:06:44.848Z,32.30
2018-08-27T16:09:14.986Z,32.30
2018-08-27T16:11:45.112Z,32.40
2018-08-27T16:14:15.202Z,32.50
2018-08-27T16:16:45.265Z,32.30
2018-08-27T16:19:15.659Z,32.40
2018-08-27T16:21:45.816Z,33.00
2018-08-27T16:24:20.416Z,32.80
2018-08-27T16:26:50.501Z,32.50
2018-08-27T16:29:20.731Z,32.60
2018-08-27T16:31:51.406Z,32.70
2018-08-27T16:34:21.589Z,33.00
2018-08-27T16:36:52.004Z,33.00
2018-08-27T16:39:22.059Z,33.50
2018-08-27T16:41:52.041Z,33.50
2018-08-27T16:44:21.992Z,33.50
2018-08-27T16:46:51.995Z,33.20
2018-08-27T16:49:21.972Z,33.50
2018-08-27T16:51:52.022Z,33.50
2018-08-27T16:54:21.985Z,33.40
2018-08-27T16:56:52.145Z,33.80
2018-08-27T16:59:22.123Z,33.80
2018-08-27T17:01:52.509Z,34.10
2018-08-27T17:04:22.513Z,34.40
2018-08-27T17:06:52.592Z,34.30
2018-08-27T17:09:22.584Z,34.70
2018-08-27T17:11:52.726Z,34.80
2018-08-27T17:14:22.720Z,35.30
2018-08-27T17:16:53.038Z,35.40
2018-08-27T17:19:23.190Z,34.90
2018-08-27T17:21:53.141Z,35.10
2018-08-27T17:24:23.788Z,35.80
2018-08-27T17:26:54.648Z,35.40
2018-08-27T17:29:25.945Z,35.90
2018-08-27T17:31:55.989Z,36.20
2018-08-27T17:34:25.968Z,36.90
2018-08-27T17:36:56.099Z,37.10
2018-08-27T17:39:26.164Z,37.50
2018-08-27T17:41:56.185Z,37.40
2018-08-27T17:44:26.168Z,37.30
2018-08-27T17:46:56.178Z,37.70
2018-08-27T17:49:26.222Z,38.70
2018-08-27T17:51:56.215Z,38.70
2018-08-27T17:54:26.204Z,38.80
2018-08-27T17:56:56.193Z,38.60
2018-08-27T17:59:26.217Z,38.40
2018-08-27T18:01:56.229Z,38.50
2018-08-27T18:04:26.241Z,39.10
2018-08-27T18:06:56.228Z,39.40
2018-08-27T18:09:26.273Z,40.60
2018-08-27T18:11:56.341Z,41.50
2018-08-27T18:14:26.937Z,41.60
2018-08-27T18:16:57.086Z,41.80
2018-08-27T18:19:27.063Z,42.50
2018-08-27T18:21:57.084Z,42.70
2018-08-27T18:24:27.069Z,42.70
2018-08-27T18:26:57.038Z,43.10
2018-08-27T18:29:27.060Z,43.40
2018-08-27T18:31:57.015Z,43.50
2018-08-27T18:34:26.953Z,44.30
2018-08-27T18:36:56.947Z,44.50
2018-08-27T18:39:26.933Z,45.00
2018-08-27T18:41:56.940Z,45.60
2018-08-27T18:44:26.925Z,45.90
2018-08-27T18:46:57.731Z,45.70
2018-08-27T18:49:27.717Z,45.80
2018-08-27T18:51:57.736Z,46.50
2018-08-27T18:54:27.669Z,47.00
2018-08-27T18:56:57.726Z,47.90
2018-08-27T18:59:27.766Z,47.50
2018-08-27T19:01:57.768Z,47.90
2018-08-27T19:04:27.736Z,48.10
2018-08-27T19:06:57.717Z,48.40
2018-08-27T19:09:27.655Z,48.40
2018-08-27T19:11:57.628Z,48.20
2018-08-27T19:14:27.601Z,49.70
2018-08-27T19:16:57.584Z,50.00
2018-08-27T19:19:27.553Z,48.80
2018-08-27T19:21:58.256Z,49.80
2018-08-27T19:24:28.367Z,49.90
2018-08-27T19:26:58.300Z,50.20
2018-08-27T19:29:28.253Z,49.70
2018-08-27T19:31:58.280Z,49.70
2018-08-27T19:34:28.257Z,50.60
2018-08-27T19:36:58.378Z,51.10
2018-08-27T19:39:28.270Z,50.80
2018-08-27T19:42:01.097Z,50.80
2018-08-27T19:44:31.198Z,49.80
2018-08-27T19:47:01.417Z,50.80
2018-08-27T19:49:31.369Z,50.70
2018-08-27T19:52:01.361Z,50.30
2018-08-27T19:54:31.362Z,50.00
2018-08-27T19:57:01.396Z,50.60
2018-08-27T19:59:31.436Z,50.10
2018-08-27T20:02:01.440Z,50.10
2018-08-27T20:04:31.397Z,49.80
2018-08-27T20:07:01.422Z,50.10
2018-08-27T20:09:31.429Z,50.10
2018-08-27T20:12:01.435Z,50.10
2018-08-27T20:14:31.451Z,50.10
2018-08-27T20:17:01.492Z,49.90
2018-08-27T20:19:31.542Z,49.70
2018-08-27T20:22:01.508Z,49.50
2018-08-27T20:24:31.527Z,49.60
2018-08-27T20:27:01.524Z,50.10
2018-08-27T20:29:31.567Z,50.10
2018-08-27T20:32:01.613Z,50.10
2018-08-27T20:34:31.670Z,50.10
2018-08-27T20:37:01.648Z,50.10
2018-08-27T20:39:31.643Z,50.10
2018-08-27T20:42:01.689Z,50.20
2018-08-27T20:44:31.718Z,50.30
2018-08-27T20:47:01.747Z,50.80
2018-08-27T20:49:31.856Z,50.90
2018-08-27T20:52:01.841Z,51.30
2018-08-27T20:54:31.797Z,51.30
2018-08-27T20:57:01.847Z,51.40
2018-08-27T20:59:31.863Z,51.60
2018-08-27T21:02:02.021Z,52.00
2018-08-27T21:04:32.021Z,52.20
2018-08-27T21:07:01.986Z,52.90
2018-08-27T21:09:32.077Z,54.70
2018-08-27T21:12:02.084Z,54.60
2018-08-27T21:15:08.458Z,55.30
2018-08-27T21:17:39.212Z,56.10
2018-08-27T21:20:11.356Z,56.80
2018-08-27T21:22:41.481Z,57.10
2018-08-27T21:25:12.332Z,57.10
2018-08-27T21:27:43.224Z,57.20
2018-08-27T21:30:14.741Z,57.20
2018-08-27T21:32:44.803Z,57.10
2018-08-27T21:35:14.877Z,56.30
2018-08-27T21:37:44.924Z,56.90
2018-08-27T21:40:14.934Z,56.80
2018-08-27T21:42:44.986Z,56.90
2018-08-27T21:45:14.993Z,57.20
2018-08-27T21:47:44.973Z,57.10
2018-08-27T21:50:15.028Z,57.30
2018-08-27T21:52:45.093Z,57.40
2018-08-27T21:55:15.088Z,57.10
2018-08-27T21:57:45.076Z,57.20
2018-08-27T22:00:15.144Z,57.60
2018-08-27T22:02:50.380Z,57.40
2018-08-27T22:05:20.417Z,57.60
2018-08-27T22:07:50.561Z,58.00
2018-08-27T22:10:20.695Z,57.70
2018-08-27T22:12:50.640Z,57.80
2018-08-27T22:15:20.580Z,57.90
2018-08-27T22:17:50.576Z,58.30
2018-08-27T22:20:20.585Z,58.30
2018-08-27T22:22:50.549Z,58.20
2018-08-27T22:25:20.504Z,58.50
2018-08-27T22:27:50.492Z,58.90
2018-08-27T22:30:20.488Z,59.10
2018-08-27T22:32:50.508Z,59.00
2018-08-27T22:35:20.547Z,59.10
2018-08-27T22:37:50.516Z,59.30
2018-08-27T22:40:20.540Z,59.20
2018-08-27T22:42:50.503Z,59.30
2018-08-27T22:45:20.449Z,59.50
2018-08-27T22:47:50.403Z,59.60
2018-08-27T22:50:20.401Z,59.60
2018-08-27T22:52:50.389Z,59.60
2018-08-27T22:55:20.479Z,59.60
2018-08-27T22:57:50.428Z,59.60
2018-08-27T23:00:24.560Z,59.60
2018-08-27T23:03:00.868Z,59.50
2018-08-27T23:05:30.957Z,59.50
2018-08-27T23:08:00.989Z,59.30
2018-08-27T23:10:31.028Z,59.40
2018-08-27T23:13:01.045Z,59.60
2018-08-27T23:15:31.068Z,59.60
2018-08-27T23:18:01.032Z,59.50
2018-08-27T23:20:31.147Z,59.30
2018-08-27T23:23:01.085Z,59.30
2018-08-27T23:25:31.129Z,59.00
2018-08-27T23:28:01.143Z,58.90
2018-08-27T23:30:31.105Z,58.80
2018-08-27T23:33:01.200Z,58.60
2018-08-27T23:35:31.260Z,58.30
2018-08-27T23:38:01.248Z,58.00
2018-08-27T23:40:31.342Z,57.90
2018-08-27T23:43:01.333Z,57.90
2018-08-27T23:45:31.320Z,57.90
2018-08-27T23:48:01.375Z,57.90
2018-08-27T23:50:31.364Z,57.90
2018-08-27T23:53:01.367Z,57.90
2018-08-27T23:55:31.316Z,57.80
2018-08-27T23:58:01.272Z,57.80
